sensor_id;sensor_type;location;lat;lon;timestamp;P1;durP1;ratioP1;P2;durP2;ratioP2
20421;SDS011;10370;53.102;18.034;2023-11-21T00:06:02;35.40;;;14.83;;
20421;SDS011;10370;53.102;18.034;2023-11-21T00:11:58;34.40;;;16.40;;
20421;SDS011;10370;53.102;18.034;2023-11-21T00:17:23;35.57;;;15.20;;
20421;SDS011;10370;53.102;18.034;2023-11-21T00:22:46;32.17;;;14.80;;
20421;SDS011;10370;53.102;18.034;2023-11-21T00:28:09;31.90;;;13.73;;
20421;SDS011;10370;53.102;18.034;2023-11-21T00:33:53;38.00;;;17.13;;
20421;SDS011;10370;53.102;18.034;2023-11-21T00:39:16;32.43;;;14.27;;
20421;SDS011;10370;53.102;18.034;2023-11-21T00:44:49;33.43;;;14.87;;
20421;SDS011;10370;53.102;18.034;2023-11-21T00:50:52;34.47;;;14.40;;
20421;SDS011;10370;53.102;18.034;2023-11-21T00:56:14;33.50;;;14.97;;
20421;SDS011;10370;53.102;18.034;2023-11-21T01:01:37;30.33;;;13.87;;
20421;SDS011;10370;53.102;18.034;2023-11-21T01:07:00;32.10;;;14.67;;
20421;SDS011;10370;53.102;18.034;2023-11-21T01:12:22;30.27;;;14.33;;
20421;SDS011;10370;53.102;18.034;2023-11-21T01:17:50;34.57;;;14.00;;
20421;SDS011;10370;53.102;18.034;2023-11-21T01:24:18;30.87;;;13.77;;
20421;SDS011;10370;53.102;18.034;2023-11-21T01:30:26;33.23;;;14.67;;
20421;SDS011;10370;53.102;18.034;2023-11-21T01:35:30;33.87;;;15.70;;
20421;SDS011;10370;53.102;18.034;2023-11-21T01:40:52;32.63;;;14.20;;
20421;SDS011;10370;53.102;18.034;2023-11-21T01:46:15;29.87;;;13.70;;
20421;SDS011;10370;53.102;18.034;2023-11-21T01:51:37;34.00;;;13.83;;
20421;SDS011;10370;53.102;18.034;2023-11-21T01:57:00;37.60;;;15.23;;
20421;SDS011;10370;53.102;18.034;2023-11-21T02:02:24;31.93;;;14.07;;
20421;SDS011;10370;53.102;18.034;2023-11-21T02:07:53;35.43;;;14.90;;
20421;SDS011;10370;53.102;18.034;2023-11-21T02:13:16;35.83;;;15.07;;
20421;SDS011;10370;53.102;18.034;2023-11-21T02:18:44;34.47;;;15.00;;
20421;SDS011;10370;53.102;18.034;2023-11-21T02:30:15;34.13;;;15.07;;
20421;SDS011;10370;53.102;18.034;2023-11-21T02:35:38;29.37;;;12.33;;
20421;SDS011;10370;53.102;18.034;2023-11-21T02:41:05;32.47;;;13.80;;
20421;SDS011;10370;53.102;18.034;2023-11-21T02:46:28;34.00;;;13.43;;
20421;SDS011;10370;53.102;18.034;2023-11-21T02:58:09;34.47;;;13.70;;
20421;SDS011;10370;53.102;18.034;2023-11-21T03:03:32;36.07;;;15.60;;
20421;SDS011;10370;53.102;18.034;2023-11-21T03:08:54;37.73;;;14.60;;
20421;SDS011;10370;53.102;18.034;2023-11-21T03:14:17;34.57;;;15.57;;
20421;SDS011;10370;53.102;18.034;2023-11-21T03:19:40;40.03;;;16.97;;
20421;SDS011;10370;53.102;18.034;2023-11-21T03:25:06;41.20;;;17.00;;
20421;SDS011;10370;53.102;18.034;2023-11-21T03:30:32;35.83;;;15.50;;
20421;SDS011;10370;53.102;18.034;2023-11-21T03:35:55;37.17;;;15.27;;
20421;SDS011;10370;53.102;18.034;2023-11-21T03:41:17;37.13;;;15.77;;
20421;SDS011;10370;53.102;18.034;2023-11-21T03:52:27;41.70;;;18.20;;
20421;SDS011;10370;53.102;18.034;2023-11-21T03:57:50;42.43;;;17.33;;
20421;SDS011;10370;53.102;18.034;2023-11-21T04:03:16;42.57;;;17.90;;
20421;SDS011;10370;53.102;18.034;2023-11-21T04:08:45;37.37;;;16.87;;
20421;SDS011;10370;53.102;18.034;2023-11-21T04:14:08;43.00;;;16.73;;
20421;SDS011;10370;53.102;18.034;2023-11-21T04:19:31;46.90;;;19.47;;
20421;SDS011;10370;53.102;18.034;2023-11-21T04:25:13;58.50;;;22.33;;
20421;SDS011;10370;53.102;18.034;2023-11-21T04:36:24;46.37;;;19.67;;
20421;SDS011;10370;53.102;18.034;2023-11-21T04:41:47;56.77;;;19.57;;
20421;SDS011;10370;53.102;18.034;2023-11-21T04:47:09;51.13;;;19.93;;
20421;SDS011;10370;53.102;18.034;2023-11-21T04:52:32;49.50;;;20.00;;
20421;SDS011;10370;53.102;18.034;2023-11-21T04:57:55;50.37;;;21.10;;
20421;SDS011;10370;53.102;18.034;2023-11-21T05:03:29;51.73;;;20.10;;
20421;SDS011;10370;53.102;18.034;2023-11-21T05:09:11;45.37;;;19.57;;
20421;SDS011;10370;53.102;18.034;2023-11-21T05:15:05;45.20;;;18.63;;
20421;SDS011;10370;53.102;18.034;2023-11-21T05:20:31;44.00;;;18.90;;
20421;SDS011;10370;53.102;18.034;2023-11-21T05:25:54;50.00;;;19.33;;
20421;SDS011;10370;53.102;18.034;2023-11-21T05:31:18;44.13;;;19.20;;
20421;SDS011;10370;53.102;18.034;2023-11-21T05:36:42;48.07;;;19.27;;
20421;SDS011;10370;53.102;18.034;2023-11-21T05:42:07;47.50;;;20.00;;
20421;SDS011;10370;53.102;18.034;2023-11-21T05:47:32;44.57;;;18.50;;
20421;SDS011;10370;53.102;18.034;2023-11-21T05:52:55;42.50;;;18.00;;
20421;SDS011;10370;53.102;18.034;2023-11-21T05:58:22;44.97;;;17.93;;
20421;SDS011;10370;53.102;18.034;2023-11-21T06:03:44;50.50;;;18.93;;
20421;SDS011;10370;53.102;18.034;2023-11-21T06:09:07;43.07;;;16.93;;
20421;SDS011;10370;53.102;18.034;2023-11-21T06:14:31;38.60;;;16.93;;
20421;SDS011;10370;53.102;18.034;2023-11-21T06:19:55;45.87;;;17.70;;
20421;SDS011;10370;53.102;18.034;2023-11-21T06:25:26;44.80;;;16.77;;
20421;SDS011;10370;53.102;18.034;2023-11-21T06:30:50;40.73;;;16.70;;
20421;SDS011;10370;53.102;18.034;2023-11-21T06:36:12;43.77;;;17.20;;
20421;SDS011;10370;53.102;18.034;2023-11-21T06:41:35;40.03;;;15.87;;
20421;SDS011;10370;53.102;18.034;2023-11-21T06:47:00;45.53;;;17.03;;
20421;SDS011;10370;53.102;18.034;2023-11-21T06:52:24;35.57;;;15.67;;
20421;SDS011;10370;53.102;18.034;2023-11-21T06:57:46;36.77;;;15.97;;
20421;SDS011;10370;53.102;18.034;2023-11-21T07:03:13;41.30;;;17.37;;
20421;SDS011;10370;53.102;18.034;2023-11-21T07:08:35;44.13;;;17.23;;
20421;SDS011;10370;53.102;18.034;2023-11-21T07:13:58;60.90;;;25.40;;
20421;SDS011;10370;53.102;18.034;2023-11-21T07:19:21;47.33;;;19.50;;
20421;SDS011;10370;53.102;18.034;2023-11-21T07:24:50;43.23;;;16.50;;
20421;SDS011;10370;53.102;18.034;2023-11-21T07:30:13;42.77;;;16.30;;
20421;SDS011;10370;53.102;18.034;2023-11-21T07:35:36;34.73;;;15.10;;
20421;SDS011;10370;53.102;18.034;2023-11-21T07:40:58;35.27;;;14.67;;
20421;SDS011;10370;53.102;18.034;2023-11-21T07:46:23;31.57;;;14.20;;
20421;SDS011;10370;53.102;18.034;2023-11-21T07:51:46;30.13;;;13.73;;
20421;SDS011;10370;53.102;18.034;2023-11-21T07:57:10;27.50;;;13.13;;
20421;SDS011;10370;53.102;18.034;2023-11-21T08:02:42;29.20;;;12.63;;
20421;SDS011;10370;53.102;18.034;2023-11-21T08:08:07;30.03;;;12.60;;
20421;SDS011;10370;53.102;18.034;2023-11-21T08:19:22;25.20;;;11.40;;
20421;SDS011;10370;53.102;18.034;2023-11-21T08:24:57;25.43;;;11.13;;
20421;SDS011;10370;53.102;18.034;2023-11-21T08:30:20;24.47;;;10.87;;
20421;SDS011;10370;53.102;18.034;2023-11-21T08:35:45;25.30;;;10.63;;
20421;SDS011;10370;53.102;18.034;2023-11-21T08:41:11;24.10;;;10.67;;
20421;SDS011;10370;53.102;18.034;2023-11-21T08:46:37;24.17;;;10.83;;
20421;SDS011;10370;53.102;18.034;2023-11-21T08:52:01;31.07;;;12.47;;
20421;SDS011;10370;53.102;18.034;2023-11-21T08:57:24;26.20;;;11.33;;
20421;SDS011;10370;53.102;18.034;2023-11-21T09:02:47;27.57;;;11.10;;
20421;SDS011;10370;53.102;18.034;2023-11-21T09:08:10;27.60;;;12.37;;
20421;SDS011;10370;53.102;18.034;2023-11-21T09:13:37;30.23;;;11.27;;
20421;SDS011;10370;53.102;18.034;2023-11-21T09:19:21;31.70;;;12.43;;
20421;SDS011;10370;53.102;18.034;2023-11-21T09:24:43;27.70;;;11.40;;
20421;SDS011;10370;53.102;18.034;2023-11-21T09:30:07;27.47;;;12.73;;
20421;SDS011;10370;53.102;18.034;2023-11-21T09:35:32;29.00;;;11.37;;
20421;SDS011;10370;53.102;18.034;2023-11-21T09:40:55;25.17;;;11.47;;
20421;SDS011;10370;53.102;18.034;2023-11-21T09:46:20;22.37;;;10.57;;
20421;SDS011;10370;53.102;18.034;2023-11-21T09:51:48;24.37;;;11.03;;
20421;SDS011;10370;53.102;18.034;2023-11-21T09:57:12;23.13;;;10.80;;
20421;SDS011;10370;53.102;18.034;2023-11-21T10:02:36;29.80;;;12.20;;
20421;SDS011;10370;53.102;18.034;2023-11-21T10:08:22;24.27;;;11.07;;
20421;SDS011;10370;53.102;18.034;2023-11-21T10:13:46;25.93;;;11.00;;
20421;SDS011;10370;53.102;18.034;2023-11-21T10:19:18;23.17;;;11.57;;
20421;SDS011;10370;53.102;18.034;2023-11-21T10:24:43;25.07;;;11.37;;
20421;SDS011;10370;53.102;18.034;2023-11-21T10:30:14;21.90;;;11.20;;
20421;SDS011;10370;53.102;18.034;2023-11-21T10:35:47;23.90;;;11.43;;
20421;SDS011;10370;53.102;18.034;2023-11-21T10:41:13;26.73;;;11.70;;
20421;SDS011;10370;53.102;18.034;2023-11-21T10:46:37;27.50;;;11.80;;
20421;SDS011;10370;53.102;18.034;2023-11-21T10:52:02;23.87;;;10.90;;
20421;SDS011;10370;53.102;18.034;2023-11-21T10:57:26;22.87;;;11.27;;
20421;SDS011;10370;53.102;18.034;2023-11-21T11:02:52;24.83;;;11.77;;
20421;SDS011;10370;53.102;18.034;2023-11-21T11:08:23;26.27;;;11.60;;
20421;SDS011;10370;53.102;18.034;2023-11-21T11:13:52;25.13;;;11.87;;
20421;SDS011;10370;53.102;18.034;2023-11-21T11:19:16;24.90;;;12.30;;
20421;SDS011;10370;53.102;18.034;2023-11-21T11:36:33;29.97;;;13.37;;
20421;SDS011;10370;53.102;18.034;2023-11-21T11:42:01;29.70;;;12.83;;
20421;SDS011;10370;53.102;18.034;2023-11-21T11:47:29;27.73;;;12.07;;
20421;SDS011;10370;53.102;18.034;2023-11-21T11:52:57;27.60;;;12.73;;
20421;SDS011;10370;53.102;18.034;2023-11-21T11:58:37;29.83;;;13.70;;
20421;SDS011;10370;53.102;18.034;2023-11-21T12:10:03;26.10;;;11.33;;
20421;SDS011;10370;53.102;18.034;2023-11-21T12:15:27;25.07;;;10.70;;
20421;SDS011;10370;53.102;18.034;2023-11-21T12:20:56;24.23;;;11.33;;
20421;SDS011;10370;53.102;18.034;2023-11-21T12:26:19;24.03;;;10.90;;
20421;SDS011;10370;53.102;18.034;2023-11-21T12:31:44;24.90;;;11.50;;
20421;SDS011;10370;53.102;18.034;2023-11-21T12:37:08;23.37;;;10.50;;
20421;SDS011;10370;53.102;18.034;2023-11-21T12:42:51;25.03;;;11.50;;
20421;SDS011;10370;53.102;18.034;2023-11-21T12:48:18;22.57;;;11.07;;
20421;SDS011;10370;53.102;18.034;2023-11-21T12:53:46;24.23;;;10.40;;
20421;SDS011;10370;53.102;18.034;2023-11-21T12:59:10;25.17;;;11.60;;
20421;SDS011;10370;53.102;18.034;2023-11-21T13:04:43;22.30;;;11.00;;
20421;SDS011;10370;53.102;18.034;2023-11-21T13:10:14;25.40;;;12.43;;
20421;SDS011;10370;53.102;18.034;2023-11-21T13:15:39;26.80;;;11.50;;
20421;SDS011;10370;53.102;18.034;2023-11-21T13:21:05;26.50;;;12.43;;
20421;SDS011;10370;53.102;18.034;2023-11-21T13:26:35;25.10;;;11.43;;
20421;SDS011;10370;53.102;18.034;2023-11-21T13:32:09;24.40;;;11.20;;
20421;SDS011;10370;53.102;18.034;2023-11-21T13:37:34;26.13;;;11.27;;
20421;SDS011;10370;53.102;18.034;2023-11-21T13:43:08;22.63;;;10.40;;
20421;SDS011;10370;53.102;18.034;2023-11-21T13:48:32;20.47;;;9.90;;
20421;SDS011;10370;53.102;18.034;2023-11-21T13:54:20;22.50;;;10.70;;
20421;SDS011;10370;53.102;18.034;2023-11-21T13:59:46;20.00;;;9.43;;
20421;SDS011;10370;53.102;18.034;2023-11-21T14:05:13;19.60;;;9.20;;
20421;SDS011;10370;53.102;18.034;2023-11-21T14:10:36;19.67;;;9.27;;
20421;SDS011;10370;53.102;18.034;2023-11-21T14:16:11;24.07;;;9.33;;
20421;SDS011;10370;53.102;18.034;2023-11-21T14:21:44;22.20;;;9.27;;
20421;SDS011;10370;53.102;18.034;2023-11-21T14:27:07;18.57;;;8.50;;
20421;SDS011;10370;53.102;18.034;2023-11-21T14:32:30;18.57;;;8.60;;
20421;SDS011;10370;53.102;18.034;2023-11-21T14:37:53;23.33;;;9.33;;
20421;SDS011;10370;53.102;18.034;2023-11-21T14:43:16;25.90;;;9.50;;
20421;SDS011;10370;53.102;18.034;2023-11-21T14:48:41;24.93;;;10.27;;
20421;SDS011;10370;53.102;18.034;2023-11-21T14:54:09;25.13;;;10.03;;
20421;SDS011;10370;53.102;18.034;2023-11-21T14:59:33;28.03;;;11.10;;
20421;SDS011;10370;53.102;18.034;2023-11-21T15:04:56;22.03;;;9.87;;
20421;SDS011;10370;53.102;18.034;2023-11-21T15:10:24;23.97;;;9.17;;
20421;SDS011;10370;53.102;18.034;2023-11-21T15:16:01;25.40;;;10.80;;
20421;SDS011;10370;53.102;18.034;2023-11-21T15:21:29;23.40;;;9.57;;
20421;SDS011;10370;53.102;18.034;2023-11-21T15:26:53;26.47;;;10.33;;
20421;SDS011;10370;53.102;18.034;2023-11-21T15:32:16;20.73;;;9.80;;
20421;SDS011;10370;53.102;18.034;2023-11-21T15:37:40;24.80;;;9.47;;
20421;SDS011;10370;53.102;18.034;2023-11-21T15:43:03;20.73;;;9.53;;
20421;SDS011;10370;53.102;18.034;2023-11-21T15:48:26;18.73;;;8.97;;
20421;SDS011;10370;53.102;18.034;2023-11-21T15:53:50;17.50;;;8.43;;
20421;SDS011;10370;53.102;18.034;2023-11-21T15:59:16;21.40;;;9.40;;
20421;SDS011;10370;53.102;18.034;2023-11-21T16:04:39;15.27;;;7.70;;
20421;SDS011;10370;53.102;18.034;2023-11-21T16:10:02;22.33;;;9.13;;
20421;SDS011;10370;53.102;18.034;2023-11-21T16:15:26;19.70;;;8.57;;
20421;SDS011;10370;53.102;18.034;2023-11-21T16:20:49;17.00;;;8.73;;
20421;SDS011;10370;53.102;18.034;2023-11-21T16:26:12;18.13;;;8.43;;
20421;SDS011;10370;53.102;18.034;2023-11-21T16:31:41;17.17;;;8.50;;
20421;SDS011;10370;53.102;18.034;2023-11-21T16:37:05;24.90;;;9.67;;
20421;SDS011;10370;53.102;18.034;2023-11-21T16:42:30;19.60;;;8.97;;
20421;SDS011;10370;53.102;18.034;2023-11-21T16:47:54;21.50;;;9.30;;
20421;SDS011;10370;53.102;18.034;2023-11-21T16:53:17;16.67;;;8.00;;
20421;SDS011;10370;53.102;18.034;2023-11-21T16:58:42;23.47;;;9.87;;
20421;SDS011;10370;53.102;18.034;2023-11-21T17:04:05;21.30;;;9.10;;
20421;SDS011;10370;53.102;18.034;2023-11-21T17:09:30;21.23;;;9.90;;
20421;SDS011;10370;53.102;18.034;2023-11-21T17:14:53;20.33;;;8.63;;
20421;SDS011;10370;53.102;18.034;2023-11-21T17:20:15;22.40;;;10.23;;
20421;SDS011;10370;53.102;18.034;2023-11-21T17:25:39;21.17;;;9.73;;
20421;SDS011;10370;53.102;18.034;2023-11-21T17:31:01;19.60;;;9.30;;
20421;SDS011;10370;53.102;18.034;2023-11-21T17:36:24;22.50;;;10.60;;
20421;SDS011;10370;53.102;18.034;2023-11-21T17:41:50;19.27;;;10.10;;
20421;SDS011;10370;53.102;18.034;2023-11-21T17:47:31;27.70;;;11.00;;
20421;SDS011;10370;53.102;18.034;2023-11-21T17:52:54;27.57;;;10.60;;
20421;SDS011;10370;53.102;18.034;2023-11-21T17:58:17;25.20;;;11.23;;
20421;SDS011;10370;53.102;18.034;2023-11-21T18:04:00;51.77;;;20.70;;
20421;SDS011;10370;53.102;18.034;2023-11-21T18:09:22;36.80;;;14.23;;
20421;SDS011;10370;53.102;18.034;2023-11-21T18:20:30;28.40;;;12.00;;
20421;SDS011;10370;53.102;18.034;2023-11-21T18:25:53;31.87;;;13.00;;
20421;SDS011;10370;53.102;18.034;2023-11-21T18:31:17;35.03;;;12.80;;
20421;SDS011;10370;53.102;18.034;2023-11-21T18:36:50;28.50;;;12.03;;
20421;SDS011;10370;53.102;18.034;2023-11-21T18:48:11;28.83;;;11.77;;
20421;SDS011;10370;53.102;18.034;2023-11-21T18:53:35;27.80;;;11.23;;
20421;SDS011;10370;53.102;18.034;2023-11-21T19:04:43;25.80;;;10.50;;
20421;SDS011;10370;53.102;18.034;2023-11-21T19:10:06;29.57;;;12.13;;
20421;SDS011;10370;53.102;18.034;2023-11-21T19:15:36;23.90;;;11.07;;
20421;SDS011;10370;53.102;18.034;2023-11-21T19:20:59;26.70;;;11.40;;
20421;SDS011;10370;53.102;18.034;2023-11-21T19:26:22;23.00;;;10.20;;
20421;SDS011;10370;53.102;18.034;2023-11-21T19:38:24;27.87;;;10.57;;
20421;SDS011;10370;53.102;18.034;2023-11-21T19:43:55;25.60;;;9.90;;
20421;SDS011;10370;53.102;18.034;2023-11-21T19:49:23;22.50;;;9.63;;
20421;SDS011;10370;53.102;18.034;2023-11-21T19:54:46;27.17;;;10.63;;
20421;SDS011;10370;53.102;18.034;2023-11-21T20:00:09;19.53;;;9.23;;
20421;SDS011;10370;53.102;18.034;2023-11-21T20:05:39;23.90;;;9.90;;
20421;SDS011;10370;53.102;18.034;2023-11-21T20:11:02;19.40;;;8.87;;
20421;SDS011;10370;53.102;18.034;2023-11-21T20:16:26;23.30;;;8.43;;
20421;SDS011;10370;53.102;18.034;2023-11-21T20:21:57;19.03;;;8.27;;
20421;SDS011;10370;53.102;18.034;2023-11-21T20:27:20;19.77;;;8.73;;
20421;SDS011;10370;53.102;18.034;2023-11-21T20:32:42;17.93;;;8.53;;
20421;SDS011;10370;53.102;18.034;2023-11-21T20:38:06;21.33;;;8.07;;
20421;SDS011;10370;53.102;18.034;2023-11-21T20:44:07;25.43;;;8.40;;
20421;SDS011;10370;53.102;18.034;2023-11-21T20:49:30;21.00;;;7.87;;
20421;SDS011;10370;53.102;18.034;2023-11-21T20:55:05;15.13;;;6.83;;
20421;SDS011;10370;53.102;18.034;2023-11-21T21:00:33;18.57;;;8.23;;
20421;SDS011;10370;53.102;18.034;2023-11-21T21:05:59;16.67;;;7.40;;
20421;SDS011;10370;53.102;18.034;2023-11-21T21:11:32;21.97;;;7.73;;
20421;SDS011;10370;53.102;18.034;2023-11-21T21:17:01;16.53;;;7.07;;
20421;SDS011;10370;53.102;18.034;2023-11-21T21:22:25;14.53;;;6.67;;
20421;SDS011;10370;53.102;18.034;2023-11-21T21:27:48;18.10;;;7.70;;
20421;SDS011;10370;53.102;18.034;2023-11-21T21:33:12;16.63;;;7.13;;
20421;SDS011;10370;53.102;18.034;2023-11-21T21:38:35;15.67;;;6.57;;
20421;SDS011;10370;53.102;18.034;2023-11-21T21:43:58;18.07;;;7.03;;
20421;SDS011;10370;53.102;18.034;2023-11-21T21:49:21;18.53;;;7.30;;
20421;SDS011;10370;53.102;18.034;2023-11-21T21:54:44;15.23;;;7.10;;
20421;SDS011;10370;53.102;18.034;2023-11-21T22:00:07;20.80;;;7.33;;
20421;SDS011;10370;53.102;18.034;2023-11-21T22:05:31;17.80;;;7.67;;
20421;SDS011;10370;53.102;18.034;2023-11-21T22:10:54;21.73;;;8.87;;
20421;SDS011;10370;53.102;18.034;2023-11-21T22:16:17;16.93;;;7.50;;
20421;SDS011;10370;53.102;18.034;2023-11-21T22:21:53;18.77;;;7.87;;
20421;SDS011;10370;53.102;18.034;2023-11-21T22:27:17;23.67;;;8.10;;
20421;SDS011;10370;53.102;18.034;2023-11-21T22:32:43;20.50;;;7.97;;
20421;SDS011;10370;53.102;18.034;2023-11-21T22:38:27;23.27;;;8.80;;
20421;SDS011;10370;53.102;18.034;2023-11-21T22:43:49;17.03;;;8.43;;
20421;SDS011;10370;53.102;18.034;2023-11-21T22:49:15;17.40;;;7.53;;
20421;SDS011;10370;53.102;18.034;2023-11-21T22:54:38;22.13;;;8.90;;
20421;SDS011;10370;53.102;18.034;2023-11-21T23:00:01;20.97;;;9.63;;
20421;SDS011;10370;53.102;18.034;2023-11-21T23:05:27;19.77;;;8.53;;
20421;SDS011;10370;53.102;18.034;2023-11-21T23:10:52;22.57;;;9.13;;
20421;SDS011;10370;53.102;18.034;2023-11-21T23:16:15;26.33;;;10.17;;
20421;SDS011;10370;53.102;18.034;2023-11-21T23:21:39;24.80;;;9.67;;
20421;SDS011;10370;53.102;18.034;2023-11-21T23:27:03;23.10;;;9.60;;
20421;SDS011;10370;53.102;18.034;2023-11-21T23:44:49;23.10;;;10.27;;
20421;SDS011;10370;53.102;18.034;2023-11-21T23:50:12;25.00;;;10.20;;
20421;SDS011;10370;53.102;18.034;2023-11-21T23:55:35;28.27;;;10.67;;
